sensor_id;sensor_type;location;lat;lon;timestamp;temperature;humidity
70851;DHT22;58475;49.662;9.636;2023-12-22T00:02:19;5.17;91.50
70851;DHT22;58475;49.662;9.636;2023-12-22T00:04:45;5.24;91.32
70851;DHT22;58475;49.662;9.636;2023-12-22T00:07:11;5.40;88.76
70851;DHT22;58475;49.662;9.636;2023-12-22T00:09:36;5.55;89.07
70851;DHT22;58475;49.662;9.636;2023-12-22T00:12:02;5.44;90.28
70851;DHT22;58475;49.662;9.636;2023-12-22T00:14:28;5.45;89.96
70851;DHT22;58475;49.662;9.636;2023-12-22T00:16:53;5.64;89.65
70851;DHT22;58475;49.662;9.636;2023-12-22T00:19:19;5.52;89.68
70851;DHT22;58475;49.662;9.636;2023-12-22T00:21:44;5.52;90.00
70851;DHT22;58475;49.662;9.636;2023-12-22T00:24:10;5.47;89.24
70851;DHT22;58475;49.662;9.636;2023-12-22T00:26:35;5.54;90.10
70851;DHT22;58475;49.662;9.636;2023-12-22T00:29:01;5.64;89.46
70851;DHT22;58475;49.662;9.636;2023-12-22T00:31:26;5.59;89.89
70851;DHT22;58475;49.662;9.636;2023-12-22T00:33:51;5.68;89.57
70851;DHT22;58475;49.662;9.636;2023-12-22T00:36:17;5.64;89.97
70851;DHT22;58475;49.662;9.636;2023-12-22T00:38:43;5.79;87.40
70851;DHT22;58475;49.662;9.636;2023-12-22T00:41:10;5.48;89.12
70851;DHT22;58475;49.662;9.636;2023-12-22T00:43:35;5.50;88.75
70851;DHT22;58475;49.662;9.636;2023-12-22T00:46:01;5.66;88.36
70851;DHT22;58475;49.662;9.636;2023-12-22T00:48:27;5.66;87.97
70851;DHT22;58475;49.662;9.636;2023-12-22T00:50:52;5.71;89.06
70851;DHT22;58475;49.662;9.636;2023-12-22T00:53:18;5.76;88.83
70851;DHT22;58475;49.662;9.636;2023-12-22T00:55:43;5.58;90.04
70851;DHT22;58475;49.662;9.636;2023-12-22T00:58:09;5.56;89.84
70851;DHT22;58475;49.662;9.636;2023-12-22T01:00:34;5.48;90.21
70851;DHT22;58475;49.662;9.636;2023-12-22T01:02:59;5.62;90.72
70851;DHT22;58475;49.662;9.636;2023-12-22T01:05:25;5.62;89.50
70851;DHT22;58475;49.662;9.636;2023-12-22T01:07:50;5.64;90.34
70851;DHT22;58475;49.662;9.636;2023-12-22T01:10:16;5.51;91.20
70851;DHT22;58475;49.662;9.636;2023-12-22T01:12:41;5.62;90.66
70851;DHT22;58475;49.662;9.636;2023-12-22T01:15:07;5.62;90.36
70851;DHT22;58475;49.662;9.636;2023-12-22T01:17:33;5.64;90.77
70851;DHT22;58475;49.662;9.636;2023-12-22T01:19:59;5.79;90.59
70851;DHT22;58475;49.662;9.636;2023-12-22T01:22:24;5.66;90.99
70851;DHT22;58475;49.662;9.636;2023-12-22T01:24:49;5.89;90.15
70851;DHT22;58475;49.662;9.636;2023-12-22T01:27:15;5.79;89.83
70851;DHT22;58475;49.662;9.636;2023-12-22T01:29:40;5.91;89.62
70851;DHT22;58475;49.662;9.636;2023-12-22T01:32:06;5.85;89.69
70851;DHT22;58475;49.662;9.636;2023-12-22T01:34:31;5.85;89.32
70851;DHT22;58475;49.662;9.636;2023-12-22T01:36:57;5.89;89.24
70851;DHT22;58475;49.662;9.636;2023-12-22T01:39:22;5.98;90.12
70851;DHT22;58475;49.662;9.636;2023-12-22T01:41:48;5.95;90.48
70851;DHT22;58475;49.662;9.636;2023-12-22T01:44:13;5.88;90.22
70851;DHT22;58475;49.662;9.636;2023-12-22T01:46:39;6.05;90.01
70851;DHT22;58475;49.662;9.636;2023-12-22T01:49:05;6.02;89.67
70851;DHT22;58475;49.662;9.636;2023-12-22T01:51:33;5.95;90.15
70851;DHT22;58475;49.662;9.636;2023-12-22T01:53:59;5.86;90.47
70851;DHT22;58475;49.662;9.636;2023-12-22T01:56:25;5.91;89.57
70851;DHT22;58475;49.662;9.636;2023-12-22T01:58:53;5.95;89.93
70851;DHT22;58475;49.662;9.636;2023-12-22T02:01:20;5.92;90.36
70851;DHT22;58475;49.662;9.636;2023-12-22T02:03:49;6.06;89.18
70851;DHT22;58475;49.662;9.636;2023-12-22T02:06:18;6.14;88.51
70851;DHT22;58475;49.662;9.636;2023-12-22T02:08:46;5.96;89.41
70851;DHT22;58475;49.662;9.636;2023-12-22T02:11:12;6.02;88.37
70851;DHT22;58475;49.662;9.636;2023-12-22T02:13:37;6.05;88.71
70851;DHT22;58475;49.662;9.636;2023-12-22T02:16:31;6.01;88.31
70851;DHT22;58475;49.662;9.636;2023-12-22T02:18:59;6.10;88.66
70851;DHT22;58475;49.662;9.636;2023-12-22T02:21:26;6.07;89.66
70851;DHT22;58475;49.662;9.636;2023-12-22T02:23:52;5.99;89.07
70851;DHT22;58475;49.662;9.636;2023-12-22T02:28:46;6.17;89.56
70851;DHT22;58475;49.662;9.636;2023-12-22T02:31:36;5.91;90.83
70851;DHT22;58475;49.662;9.636;2023-12-22T02:34:07;5.37;89.70
70851;DHT22;58475;49.662;9.636;2023-12-22T02:36:38;4.87;90.62
70851;DHT22;58475;49.662;9.636;2023-12-22T02:39:06;4.68;91.93
70851;DHT22;58475;49.662;9.636;2023-12-22T02:41:32;4.72;91.40
70851;DHT22;58475;49.662;9.636;2023-12-22T02:43:58;4.58;91.61
70851;DHT22;58475;49.662;9.636;2023-12-22T02:46:24;4.56;92.42
70851;DHT22;58475;49.662;9.636;2023-12-22T02:48:49;4.56;92.38
70851;DHT22;58475;49.662;9.636;2023-12-22T02:51:15;4.52;93.07
70851;DHT22;58475;49.662;9.636;2023-12-22T02:53:40;4.68;92.27
70851;DHT22;58475;49.662;9.636;2023-12-22T02:56:06;4.61;92.13
70851;DHT22;58475;49.662;9.636;2023-12-22T02:58:31;4.77;91.41
70851;DHT22;58475;49.662;9.636;2023-12-22T03:00:57;4.86;91.72
70851;DHT22;58475;49.662;9.636;2023-12-22T03:03:22;4.62;92.40
70851;DHT22;58475;49.662;9.636;2023-12-22T03:05:48;4.71;92.39
70851;DHT22;58475;49.662;9.636;2023-12-22T03:08:13;4.77;92.00
70851;DHT22;58475;49.662;9.636;2023-12-22T03:10:39;4.83;92.23
70851;DHT22;58475;49.662;9.636;2023-12-22T03:13:04;4.80;91.71
70851;DHT22;58475;49.662;9.636;2023-12-22T03:15:29;4.82;92.32
70851;DHT22;58475;49.662;9.636;2023-12-22T03:17:55;4.82;92.65
70851;DHT22;58475;49.662;9.636;2023-12-22T03:20:20;4.90;92.77
70851;DHT22;58475;49.662;9.636;2023-12-22T03:22:46;4.92;92.30
70851;DHT22;58475;49.662;9.636;2023-12-22T03:25:11;4.94;92.83
70851;DHT22;58475;49.662;9.636;2023-12-22T03:27:37;5.16;89.45
70851;DHT22;58475;49.662;9.636;2023-12-22T03:30:02;5.04;91.06
70851;DHT22;58475;49.662;9.636;2023-12-22T03:32:29;5.09;90.33
70851;DHT22;58475;49.662;9.636;2023-12-22T03:34:54;5.01;91.37
70851;DHT22;58475;49.662;9.636;2023-12-22T03:37:19;5.24;90.52
70851;DHT22;58475;49.662;9.636;2023-12-22T03:39:45;5.19;91.39
70851;DHT22;58475;49.662;9.636;2023-12-22T03:42:10;5.38;89.70
70851;DHT22;58475;49.662;9.636;2023-12-22T03:44:36;5.17;91.15
70851;DHT22;58475;49.662;9.636;2023-12-22T03:47:01;5.22;91.18
70851;DHT22;58475;49.662;9.636;2023-12-22T03:49:27;4.97;90.56
70851;DHT22;58475;49.662;9.636;2023-12-22T03:51:52;5.10;91.13
70851;DHT22;58475;49.662;9.636;2023-12-22T03:54:18;5.28;89.69
70851;DHT22;58475;49.662;9.636;2023-12-22T03:56:43;5.10;90.76
70851;DHT22;58475;49.662;9.636;2023-12-22T03:59:09;5.00;91.72
70851;DHT22;58475;49.662;9.636;2023-12-22T04:01:35;4.96;91.86
70851;DHT22;58475;49.662;9.636;2023-12-22T04:04:00;5.19;91.82
70851;DHT22;58475;49.662;9.636;2023-12-22T04:06:26;5.04;91.23
70851;DHT22;58475;49.662;9.636;2023-12-22T04:08:52;5.13;91.85
70851;DHT22;58475;49.662;9.636;2023-12-22T04:11:17;5.09;92.22
70851;DHT22;58475;49.662;9.636;2023-12-22T04:13:43;5.20;92.18
70851;DHT22;58475;49.662;9.636;2023-12-22T04:16:08;5.22;92.59
70851;DHT22;58475;49.662;9.636;2023-12-22T04:18:34;5.26;92.62
70851;DHT22;58475;49.662;9.636;2023-12-22T04:20:59;5.23;92.41
70851;DHT22;58475;49.662;9.636;2023-12-22T04:23:25;4.94;94.07
70851;DHT22;58475;49.662;9.636;2023-12-22T04:25:50;5.01;94.51
70851;DHT22;58475;49.662;9.636;2023-12-22T04:28:16;5.04;94.60
70851;DHT22;58475;49.662;9.636;2023-12-22T04:30:41;4.90;94.81
70851;DHT22;58475;49.662;9.636;2023-12-22T04:33:07;4.97;94.72
70851;DHT22;58475;49.662;9.636;2023-12-22T04:35:32;5.01;94.18
70851;DHT22;58475;49.662;9.636;2023-12-22T04:37:57;5.06;94.07
70851;DHT22;58475;49.662;9.636;2023-12-22T04:40:23;5.06;94.27
70851;DHT22;58475;49.662;9.636;2023-12-22T04:42:48;5.07;94.17
70851;DHT22;58475;49.662;9.636;2023-12-22T04:45:14;4.97;94.59
70851;DHT22;58475;49.662;9.636;2023-12-22T04:47:40;5.23;93.81
70851;DHT22;58475;49.662;9.636;2023-12-22T04:50:05;5.10;94.03
70851;DHT22;58475;49.662;9.636;2023-12-22T04:52:31;4.97;94.46
70851;DHT22;58475;49.662;9.636;2023-12-22T04:54:56;5.03;94.63
70851;DHT22;58475;49.662;9.636;2023-12-22T04:57:22;4.97;94.62
70851;DHT22;58475;49.662;9.636;2023-12-22T04:59:47;4.83;94.97
70851;DHT22;58475;49.662;9.636;2023-12-22T05:02:13;5.03;94.26
70851;DHT22;58475;49.662;9.636;2023-12-22T05:04:38;5.12;93.74
70851;DHT22;58475;49.662;9.636;2023-12-22T05:07:04;4.99;94.49
70851;DHT22;58475;49.662;9.636;2023-12-22T05:09:33;5.17;93.69
70851;DHT22;58475;49.662;9.636;2023-12-22T05:11:59;4.96;94.37
70851;DHT22;58475;49.662;9.636;2023-12-22T05:14:24;5.04;94.83
70851;DHT22;58475;49.662;9.636;2023-12-22T05:16:49;5.13;94.41
70851;DHT22;58475;49.662;9.636;2023-12-22T05:19:16;5.14;93.50
70851;DHT22;58475;49.662;9.636;2023-12-22T05:21:41;5.47;92.46
70851;DHT22;58475;49.662;9.636;2023-12-22T05:24:07;5.89;90.31
70851;DHT22;58475;49.662;9.636;2023-12-22T05:26:32;5.78;91.72
70851;DHT22;58475;49.662;9.636;2023-12-22T05:28:58;6.07;89.71
70851;DHT22;58475;49.662;9.636;2023-12-22T05:31:23;6.02;90.69
70851;DHT22;58475;49.662;9.636;2023-12-22T05:33:48;6.05;90.03
70851;DHT22;58475;49.662;9.636;2023-12-22T05:36:14;6.19;89.08
70851;DHT22;58475;49.662;9.636;2023-12-22T05:38:39;6.14;89.42
70851;DHT22;58475;49.662;9.636;2023-12-22T05:41:06;6.23;88.91
70851;DHT22;58475;49.662;9.636;2023-12-22T05:43:32;6.23;88.64
70851;DHT22;58475;49.662;9.636;2023-12-22T05:45:59;6.32;87.23
70851;DHT22;58475;49.662;9.636;2023-12-22T05:48:25;6.30;87.22
70851;DHT22;58475;49.662;9.636;2023-12-22T05:50:50;6.38;88.94
70851;DHT22;58475;49.662;9.636;2023-12-22T05:53:16;6.43;88.52
70851;DHT22;58475;49.662;9.636;2023-12-22T05:55:41;6.44;88.19
70851;DHT22;58475;49.662;9.636;2023-12-22T05:58:07;6.16;89.97
70851;DHT22;58475;49.662;9.636;2023-12-22T06:00:32;6.47;88.82
70851;DHT22;58475;49.662;9.636;2023-12-22T06:02:58;6.29;89.75
70851;DHT22;58475;49.662;9.636;2023-12-22T06:05:23;6.30;90.59
70851;DHT22;58475;49.662;9.636;2023-12-22T06:07:48;6.20;90.26
70851;DHT22;58475;49.662;9.636;2023-12-22T06:10:14;6.27;90.15
70851;DHT22;58475;49.662;9.636;2023-12-22T06:12:39;6.19;90.60
70851;DHT22;58475;49.662;9.636;2023-12-22T06:15:05;6.13;91.16
70851;DHT22;58475;49.662;9.636;2023-12-22T06:17:31;6.14;91.27
70851;DHT22;58475;49.662;9.636;2023-12-22T06:19:56;6.24;90.76
70851;DHT22;58475;49.662;9.636;2023-12-22T06:22:22;6.14;91.16
70851;DHT22;58475;49.662;9.636;2023-12-22T06:24:48;6.07;91.02
70851;DHT22;58475;49.662;9.636;2023-12-22T06:27:13;5.99;91.29
70851;DHT22;58475;49.662;9.636;2023-12-22T06:29:39;5.93;91.37
70851;DHT22;58475;49.662;9.636;2023-12-22T06:32:05;6.01;90.21
70851;DHT22;58475;49.662;9.636;2023-12-22T06:34:31;6.20;89.52
70851;DHT22;58475;49.662;9.636;2023-12-22T06:36:57;6.13;89.71
70851;DHT22;58475;49.662;9.636;2023-12-22T06:39:22;6.27;89.24
70851;DHT22;58475;49.662;9.636;2023-12-22T06:41:48;6.03;89.13
70851;DHT22;58475;49.662;9.636;2023-12-22T06:44:13;6.16;89.32
70851;DHT22;58475;49.662;9.636;2023-12-22T06:46:39;6.20;89.78
70851;DHT22;58475;49.662;9.636;2023-12-22T06:49:04;6.23;89.34
70851;DHT22;58475;49.662;9.636;2023-12-22T06:51:33;6.37;88.72
70851;DHT22;58475;49.662;9.636;2023-12-22T06:54:03;6.38;88.91
70851;DHT22;58475;49.662;9.636;2023-12-22T06:56:34;6.23;89.48
70851;DHT22;58475;49.662;9.636;2023-12-22T06:59:00;6.36;88.53
70851;DHT22;58475;49.662;9.636;2023-12-22T07:01:33;6.38;88.14
70851;DHT22;58475;49.662;9.636;2023-12-22T07:03:59;6.43;87.77
70851;DHT22;58475;49.662;9.636;2023-12-22T07:06:32;6.33;88.32
70851;DHT22;58475;49.662;9.636;2023-12-22T07:11:50;6.45;87.18
70851;DHT22;58475;49.662;9.636;2023-12-22T07:14:16;6.71;86.78
70851;DHT22;58475;49.662;9.636;2023-12-22T07:16:41;6.63;86.68
70851;DHT22;58475;49.662;9.636;2023-12-22T07:19:10;6.71;86.27
70851;DHT22;58475;49.662;9.636;2023-12-22T07:21:41;6.68;86.07
70851;DHT22;58475;49.662;9.636;2023-12-22T07:24:10;6.67;85.35
70851;DHT22;58475;49.662;9.636;2023-12-22T07:26:35;6.71;85.36
70851;DHT22;58475;49.662;9.636;2023-12-22T07:29:01;6.71;85.98
70851;DHT22;58475;49.662;9.636;2023-12-22T07:31:26;6.89;85.15
70851;DHT22;58475;49.662;9.636;2023-12-22T07:33:52;6.88;85.73
70851;DHT22;58475;49.662;9.636;2023-12-22T07:36:18;6.91;86.30
70851;DHT22;58475;49.662;9.636;2023-12-22T07:38:46;7.01;83.99
70851;DHT22;58475;49.662;9.636;2023-12-22T07:41:12;6.88;84.89
70851;DHT22;58475;49.662;9.636;2023-12-22T07:43:37;6.88;84.89
70851;DHT22;58475;49.662;9.636;2023-12-22T07:46:03;6.88;85.05
70851;DHT22;58475;49.662;9.636;2023-12-22T07:48:29;6.96;85.08
70851;DHT22;58475;49.662;9.636;2023-12-22T07:50:54;6.95;84.77
70851;DHT22;58475;49.662;9.636;2023-12-22T07:53:20;7.05;84.24
70851;DHT22;58475;49.662;9.636;2023-12-22T07:55:46;6.99;85.13
70851;DHT22;58475;49.662;9.636;2023-12-22T07:58:12;7.20;85.10
70851;DHT22;58475;49.662;9.636;2023-12-22T08:00:38;6.92;85.97
70851;DHT22;58475;49.662;9.636;2023-12-22T08:03:03;6.98;86.04
70851;DHT22;58475;49.662;9.636;2023-12-22T08:05:29;7.15;83.93
70851;DHT22;58475;49.662;9.636;2023-12-22T08:07:58;7.25;83.88
70851;DHT22;58475;49.662;9.636;2023-12-22T08:10:24;7.23;84.66
70851;DHT22;58475;49.662;9.636;2023-12-22T08:12:49;7.34;83.93
70851;DHT22;58475;49.662;9.636;2023-12-22T08:15:15;7.27;83.75
70851;DHT22;58475;49.662;9.636;2023-12-22T08:17:50;7.25;84.38
70851;DHT22;58475;49.662;9.636;2023-12-22T08:20:21;7.27;83.97
70851;DHT22;58475;49.662;9.636;2023-12-22T08:22:47;7.46;83.90
70851;DHT22;58475;49.662;9.636;2023-12-22T08:25:13;7.49;84.40
70851;DHT22;58475;49.662;9.636;2023-12-22T08:27:39;7.33;85.21
70851;DHT22;58475;49.662;9.636;2023-12-22T08:30:06;7.34;85.48
70851;DHT22;58475;49.662;9.636;2023-12-22T08:32:31;7.27;86.19
70851;DHT22;58475;49.662;9.636;2023-12-22T08:34:57;7.33;85.63
70851;DHT22;58475;49.662;9.636;2023-12-22T08:37:22;7.39;85.23
70851;DHT22;58475;49.662;9.636;2023-12-22T08:39:48;7.60;83.77
70851;DHT22;58475;49.662;9.636;2023-12-22T08:42:14;7.56;84.84
70851;DHT22;58475;49.662;9.636;2023-12-22T08:44:40;7.50;86.59
70851;DHT22;58475;49.662;9.636;2023-12-22T08:47:05;7.44;87.44
70851;DHT22;58475;49.662;9.636;2023-12-22T08:49:31;7.34;88.25
70851;DHT22;58475;49.662;9.636;2023-12-22T08:51:56;7.22;88.86
70851;DHT22;58475;49.662;9.636;2023-12-22T08:54:22;7.29;88.87
70851;DHT22;58475;49.662;9.636;2023-12-22T08:56:47;7.36;87.44
70851;DHT22;58475;49.662;9.636;2023-12-22T08:59:12;7.23;87.59
70851;DHT22;58475;49.662;9.636;2023-12-22T09:01:38;7.37;87.12
70851;DHT22;58475;49.662;9.636;2023-12-22T09:04:03;7.44;86.58
70851;DHT22;58475;49.662;9.636;2023-12-22T09:06:29;7.52;86.86
70851;DHT22;58475;49.662;9.636;2023-12-22T09:08:54;7.54;86.82
70851;DHT22;58475;49.662;9.636;2023-12-22T09:11:20;7.47;86.34
70851;DHT22;58475;49.662;9.636;2023-12-22T09:13:46;7.69;84.92
70851;DHT22;58475;49.662;9.636;2023-12-22T09:16:12;7.71;85.42
70851;DHT22;58475;49.662;9.636;2023-12-22T09:18:40;7.69;85.58
70851;DHT22;58475;49.662;9.636;2023-12-22T09:21:06;7.60;85.46
70851;DHT22;58475;49.662;9.636;2023-12-22T09:23:32;7.70;84.82
70851;DHT22;58475;49.662;9.636;2023-12-22T09:25:57;7.67;84.92
70851;DHT22;58475;49.662;9.636;2023-12-22T09:28:23;7.66;85.41
70851;DHT22;58475;49.662;9.636;2023-12-22T09:30:49;7.73;86.19
70851;DHT22;58475;49.662;9.636;2023-12-22T09:33:14;7.63;85.60
70851;DHT22;58475;49.662;9.636;2023-12-22T09:35:40;7.77;85.02
70851;DHT22;58475;49.662;9.636;2023-12-22T09:38:08;7.57;86.85
70851;DHT22;58475;49.662;9.636;2023-12-22T09:40:40;7.46;86.31
70851;DHT22;58475;49.662;9.636;2023-12-22T09:43:08;7.19;87.84
70851;DHT22;58475;49.662;9.636;2023-12-22T09:45:34;7.08;87.98
70851;DHT22;58475;49.662;9.636;2023-12-22T09:48:01;7.22;88.01
70851;DHT22;58475;49.662;9.636;2023-12-22T09:50:27;7.11;89.30
70851;DHT22;58475;49.662;9.636;2023-12-22T09:52:54;6.88;89.79
70851;DHT22;58475;49.662;9.636;2023-12-22T09:55:21;7.01;90.09
70851;DHT22;58475;49.662;9.636;2023-12-22T09:57:47;7.13;89.22
70851;DHT22;58475;49.662;9.636;2023-12-22T10:00:14;7.13;89.47
70851;DHT22;58475;49.662;9.636;2023-12-22T10:02:40;6.84;91.78
70851;DHT22;58475;49.662;9.636;2023-12-22T10:05:08;6.95;90.35
70851;DHT22;58475;49.662;9.636;2023-12-22T10:07:35;7.08;89.91
70851;DHT22;58475;49.662;9.636;2023-12-22T10:10:01;6.92;90.75
70851;DHT22;58475;49.662;9.636;2023-12-22T10:12:29;6.94;90.63
70851;DHT22;58475;49.662;9.636;2023-12-22T10:14:59;6.96;91.19
70851;DHT22;58475;49.662;9.636;2023-12-22T10:17:24;6.96;89.90
70851;DHT22;58475;49.662;9.636;2023-12-22T10:19:51;7.19;90.02
70851;DHT22;58475;49.662;9.636;2023-12-22T10:22:16;7.02;90.71
70851;DHT22;58475;49.662;9.636;2023-12-22T10:24:46;7.15;91.12
70851;DHT22;58475;49.662;9.636;2023-12-22T10:27:18;7.33;90.71
70851;DHT22;58475;49.662;9.636;2023-12-22T10:29:54;7.26;90.68
70851;DHT22;58475;49.662;9.636;2023-12-22T10:32:20;7.32;90.55
70851;DHT22;58475;49.662;9.636;2023-12-22T10:34:47;7.49;90.03
70851;DHT22;58475;49.662;9.636;2023-12-22T10:37:12;7.49;89.74
70851;DHT22;58475;49.662;9.636;2023-12-22T10:39:38;7.40;90.47
70851;DHT22;58475;49.662;9.636;2023-12-22T10:42:04;7.43;90.83
70851;DHT22;58475;49.662;9.636;2023-12-22T10:44:29;7.47;90.73
70851;DHT22;58475;49.662;9.636;2023-12-22T10:46:56;7.67;89.88
70851;DHT22;58475;49.662;9.636;2023-12-22T10:49:22;7.70;90.51
70851;DHT22;58475;49.662;9.636;2023-12-22T10:51:49;7.71;89.37
70851;DHT22;58475;49.662;9.636;2023-12-22T10:54:14;7.71;90.00
70851;DHT22;58475;49.662;9.636;2023-12-22T10:56:40;7.71;90.05
70851;DHT22;58475;49.662;9.636;2023-12-22T10:59:06;7.80;90.75
70851;DHT22;58475;49.662;9.636;2023-12-22T11:01:32;7.80;89.98
70851;DHT22;58475;49.662;9.636;2023-12-22T11:04:09;7.71;89.89
70851;DHT22;58475;49.662;9.636;2023-12-22T11:06:41;7.71;90.39
70851;DHT22;58475;49.662;9.636;2023-12-22T11:09:08;7.67;90.43
70851;DHT22;58475;49.662;9.636;2023-12-22T11:11:39;7.74;90.53
70851;DHT22;58475;49.662;9.636;2023-12-22T11:14:05;7.75;90.26
70851;DHT22;58475;49.662;9.636;2023-12-22T11:16:33;7.70;90.95
70851;DHT22;58475;49.662;9.636;2023-12-22T11:19:00;7.77;90.07
70851;DHT22;58475;49.662;9.636;2023-12-22T11:21:26;7.63;90.17
70851;DHT22;58475;49.662;9.636;2023-12-22T11:23:53;7.75;89.62
70851;DHT22;58475;49.662;9.636;2023-12-22T11:26:20;7.74;90.16
70851;DHT22;58475;49.662;9.636;2023-12-22T11:28:47;7.95;89.56
70851;DHT22;58475;49.662;9.636;2023-12-22T11:31:13;7.91;89.24
70851;DHT22;58475;49.662;9.636;2023-12-22T11:33:49;8.09;89.05
70851;DHT22;58475;49.662;9.636;2023-12-22T11:36:16;8.08;89.10
70851;DHT22;58475;49.662;9.636;2023-12-22T11:38:44;8.02;88.95
70851;DHT22;58475;49.662;9.636;2023-12-22T11:41:16;8.12;88.92
70851;DHT22;58475;49.662;9.636;2023-12-22T11:43:43;8.05;89.55
70851;DHT22;58475;49.662;9.636;2023-12-22T11:46:09;8.11;88.82
70851;DHT22;58475;49.662;9.636;2023-12-22T11:48:35;8.24;88.09
70851;DHT22;58475;49.662;9.636;2023-12-22T11:51:00;8.20;88.46
70851;DHT22;58475;49.662;9.636;2023-12-22T11:53:30;8.29;88.34
70851;DHT22;58475;49.662;9.636;2023-12-22T11:55:59;8.36;88.01
70851;DHT22;58475;49.662;9.636;2023-12-22T11:58:35;8.33;88.12
70851;DHT22;58475;49.662;9.636;2023-12-22T12:01:06;8.29;88.27
70851;DHT22;58475;49.662;9.636;2023-12-22T12:03:32;8.28;88.34
70851;DHT22;58475;49.662;9.636;2023-12-22T12:08:35;8.28;88.57
70851;DHT22;58475;49.662;9.636;2023-12-22T12:11:01;8.29;89.24
70851;DHT22;58475;49.662;9.636;2023-12-22T12:13:31;8.29;88.60
70851;DHT22;58475;49.662;9.636;2023-12-22T12:15:58;8.55;87.39
70851;DHT22;58475;49.662;9.636;2023-12-22T12:18:29;8.36;88.02
70851;DHT22;58475;49.662;9.636;2023-12-22T12:20:55;8.45;88.12
70851;DHT22;58475;49.662;9.636;2023-12-22T12:23:23;8.55;87.91
70851;DHT22;58475;49.662;9.636;2023-12-22T12:25:49;8.50;88.18
70851;DHT22;58475;49.662;9.636;2023-12-22T12:28:15;8.45;88.17
70851;DHT22;58475;49.662;9.636;2023-12-22T12:30:43;8.43;88.85
70851;DHT22;58475;49.662;9.636;2023-12-22T12:33:10;8.38;89.83
70851;DHT22;58475;49.662;9.636;2023-12-22T12:35:37;8.31;89.70
70851;DHT22;58475;49.662;9.636;2023-12-22T12:38:04;8.41;89.17
70851;DHT22;58475;49.662;9.636;2023-12-22T12:40:30;8.36;89.52
70851;DHT22;58475;49.662;9.636;2023-12-22T12:42:58;8.32;89.14
70851;DHT22;58475;49.662;9.636;2023-12-22T12:45:24;8.28;89.51
70851;DHT22;58475;49.662;9.636;2023-12-22T12:48:00;8.42;89.76
70851;DHT22;58475;49.662;9.636;2023-12-22T12:50:26;8.55;88.80
70851;DHT22;58475;49.662;9.636;2023-12-22T12:52:53;8.50;88.27
70851;DHT22;58475;49.662;9.636;2023-12-22T12:55:22;8.56;88.09
70851;DHT22;58475;49.662;9.636;2023-12-22T12:57:48;8.63;88.36
70851;DHT22;58475;49.662;9.636;2023-12-22T13:00:25;8.62;88.07
70851;DHT22;58475;49.662;9.636;2023-12-22T13:02:53;8.70;88.39
70851;DHT22;58475;49.662;9.636;2023-12-22T13:05:22;8.56;89.51
70851;DHT22;58475;49.662;9.636;2023-12-22T13:07:47;8.66;90.12
70851;DHT22;58475;49.662;9.636;2023-12-22T13:10:23;8.64;89.49
70851;DHT22;58475;49.662;9.636;2023-12-22T13:12:52;8.73;89.35
70851;DHT22;58475;49.662;9.636;2023-12-22T13:15:22;8.70;89.66
70851;DHT22;58475;49.662;9.636;2023-12-22T13:17:47;8.67;90.64
70851;DHT22;58475;49.662;9.636;2023-12-22T13:20:13;8.66;90.48
70851;DHT22;58475;49.662;9.636;2023-12-22T13:22:39;8.73;91.10
70851;DHT22;58475;49.662;9.636;2023-12-22T13:25:05;8.72;91.28
70851;DHT22;58475;49.662;9.636;2023-12-22T13:27:31;8.72;91.43
70851;DHT22;58475;49.662;9.636;2023-12-22T13:29:56;8.64;91.45
70851;DHT22;58475;49.662;9.636;2023-12-22T13:32:22;8.76;91.95
70851;DHT22;58475;49.662;9.636;2023-12-22T13:34:52;8.80;92.28
70851;DHT22;58475;49.662;9.636;2023-12-22T13:37:19;8.81;91.89
70851;DHT22;58475;49.662;9.636;2023-12-22T13:39:45;8.72;92.99
70851;DHT22;58475;49.662;9.636;2023-12-22T13:42:18;8.69;93.38
70851;DHT22;58475;49.662;9.636;2023-12-22T13:44:48;8.74;93.19
70851;DHT22;58475;49.662;9.636;2023-12-22T13:47:20;8.76;93.02
70851;DHT22;58475;49.662;9.636;2023-12-22T13:49:46;8.73;93.28
70851;DHT22;58475;49.662;9.636;2023-12-22T13:52:25;8.77;93.55
70851;DHT22;58475;49.662;9.636;2023-12-22T13:54:52;8.81;93.90
70851;DHT22;58475;49.662;9.636;2023-12-22T13:57:21;8.74;93.56
70851;DHT22;58475;49.662;9.636;2023-12-22T13:59:50;8.81;94.04
70851;DHT22;58475;49.662;9.636;2023-12-22T14:02:22;8.83;94.19
70851;DHT22;58475;49.662;9.636;2023-12-22T14:04:51;8.88;93.70
70851;DHT22;58475;49.662;9.636;2023-12-22T14:07:16;8.96;92.44
70851;DHT22;58475;49.662;9.636;2023-12-22T14:09:42;9.15;91.25
70851;DHT22;58475;49.662;9.636;2023-12-22T14:12:08;9.13;91.89
70851;DHT22;58475;49.662;9.636;2023-12-22T14:14:33;9.08;91.61
70851;DHT22;58475;49.662;9.636;2023-12-22T14:16:59;9.23;91.25
70851;DHT22;58475;49.662;9.636;2023-12-22T14:19:24;9.17;91.58
70851;DHT22;58475;49.662;9.636;2023-12-22T14:21:50;9.18;91.27
70851;DHT22;58475;49.662;9.636;2023-12-22T14:24:16;9.14;91.86
70851;DHT22;58475;49.662;9.636;2023-12-22T14:26:56;9.04;92.10
70851;DHT22;58475;49.662;9.636;2023-12-22T14:29:22;8.94;93.40
70851;DHT22;58475;49.662;9.636;2023-12-22T14:31:51;9.03;93.23
70851;DHT22;58475;49.662;9.636;2023-12-22T14:34:17;9.07;92.67
70851;DHT22;58475;49.662;9.636;2023-12-22T14:36:44;8.93;93.66
70851;DHT22;58475;49.662;9.636;2023-12-22T14:39:10;8.88;93.82
70851;DHT22;58475;49.662;9.636;2023-12-22T14:41:41;8.90;93.57
70851;DHT22;58475;49.662;9.636;2023-12-22T14:44:10;8.81;93.84
70851;DHT22;58475;49.662;9.636;2023-12-22T14:46:39;8.85;93.78
70851;DHT22;58475;49.662;9.636;2023-12-22T14:49:05;9.00;93.49
70851;DHT22;58475;49.662;9.636;2023-12-22T14:51:35;8.97;93.67
70851;DHT22;58475;49.662;9.636;2023-12-22T14:54:01;8.94;93.70
70851;DHT22;58475;49.662;9.636;2023-12-22T14:56:26;9.01;92.90
70851;DHT22;58475;49.662;9.636;2023-12-22T14:58:52;8.84;93.74
70851;DHT22;58475;49.662;9.636;2023-12-22T15:01:17;8.90;93.78
70851;DHT22;58475;49.662;9.636;2023-12-22T15:03:43;8.91;92.42
70851;DHT22;58475;49.662;9.636;2023-12-22T15:06:08;9.00;92.46
70851;DHT22;58475;49.662;9.636;2023-12-22T15:08:34;9.01;92.15
70851;DHT22;58475;49.662;9.636;2023-12-22T15:11:00;8.97;91.71
70851;DHT22;58475;49.662;9.636;2023-12-22T15:13:26;9.14;91.58
70851;DHT22;58475;49.662;9.636;2023-12-22T15:15:51;9.17;90.47
70851;DHT22;58475;49.662;9.636;2023-12-22T15:18:17;9.25;89.72
70851;DHT22;58475;49.662;9.636;2023-12-22T15:20:42;9.39;89.13
70851;DHT22;58475;49.662;9.636;2023-12-22T15:23:08;9.42;89.31
70851;DHT22;58475;49.662;9.636;2023-12-22T15:25:33;9.36;89.02
70851;DHT22;58475;49.662;9.636;2023-12-22T15:27:59;9.58;88.60
70851;DHT22;58475;49.662;9.636;2023-12-22T15:30:25;9.51;89.44
70851;DHT22;58475;49.662;9.636;2023-12-22T15:32:53;9.63;88.50
70851;DHT22;58475;49.662;9.636;2023-12-22T15:35:19;9.59;88.00
70851;DHT22;58475;49.662;9.636;2023-12-22T15:37:45;9.66;88.49
70851;DHT22;58475;49.662;9.636;2023-12-22T15:40:10;9.45;88.97
70851;DHT22;58475;49.662;9.636;2023-12-22T15:42:37;9.56;88.71
70851;DHT22;58475;49.662;9.636;2023-12-22T15:45:02;9.56;88.69
70851;DHT22;58475;49.662;9.636;2023-12-22T15:47:28;9.58;87.72
70851;DHT22;58475;49.662;9.636;2023-12-22T15:49:54;9.69;86.78